Terminal Aerodrome Forecast
Issued by NWS

Home | Current Version | Previous Version | Text Only | Print | Product List | Glossary On
Versions: 1 2 3 4 5 6 7 8 9 10 11 12 13 14 15 16 17 18 19 20 21 22 23 24 25
000
FTUS45 KGJT 051729
TAFVEL
TAF
KVEL 051729Z 0518/0618 22003KT P6SM VCSH BKN090 OVC110
     FM052000 16005KT P6SM VCTS BKN070CB
     FM060000 24010KT P6SM VCSH BKN080
     FM060600 VRB03KT P6SM OVC120=

USA.gov is the U.S. government's official web portal to all federal, state and local government web resources and services.